• Join FlightAware (Why Join?)
  • Login
  • US Flag 
11:02PM EDT


 

Airport Tracker/Info


-or-


 

Live Flight TrackerFlight Track Log ✈ N910JD ✈ 29-Apr-2013 ✈ KROG - KSDL

Flight Track Log - Related Links

Times and Time Zones

All times are in EDT time to prevent confusion due to time zone crossing. See the N910JD flight status page for this flight to view local times or setup timezone preferences in your user account.

Time Position Orientation Groundspeed Altitude Reporting Facility
EDT Latitude Longitude Course Direction KTS MPH feet Rate Location/Type
04:13PM 36.3247 -94.1869 257° West 213 245 6,500  Level Kansas City Center
04:13PM 36.3222 -94.2131 263° West 206 237 7,100 3,000 Climbing Memphis Center
04:14PM 36.3150 -94.3053 264° West 241 277 10,300 2,580 Climbing Memphis Center
04:15PM 36.3097 -94.4081 266° West 269 310 12,300 2,160 Climbing Memphis Center
04:16PM 36.2994 -94.5261 264° West 319 367 14,700 2,040 Climbing Memphis Center
04:17PM 36.2838 -94.9122 262° West  Level FlightAware Approximate
04:17PM 36.2911 -94.6517 265° West 339 390 16,400  Level Memphis Center
04:18PM 36.2833 -94.7461 264° West 369 425 17,800 2,040 Climbing Kansas City Center
04:19PM 36.2700 -94.9025 264° West 377 434 20,400 1,980 Climbing Kansas City Center
04:20PM 36.2583 -95.0347 264° West 382 440 22,000 1,500 Climbing Kansas City Center
04:21PM 36.2486 -95.1589 264° West 386 444 23,600 1,500 Climbing Kansas City Center
04:22PM 36.2372 -95.2953 264° West 394 453 25,100 1,620 Climbing Kansas City Center
04:23PM 36.2267 -95.4336 265° West 402 463 27,000 2,160 Climbing Kansas City Center
04:24PM 36.2119 -95.5972 264° West 400 460 29,600 1,980 Climbing Kansas City Center
04:25PM 36.2008 -95.7328 264° West 398 458 31,200 1,140 Climbing Kansas City Center
04:26PM 36.1953 -95.8628 267° West 398 458 32,000 720 Climbing Kansas City Center
04:27PM 36.1961 -96.0106 270° West 420 483 32,800 1,080 Climbing Kansas City Center
04:28PM 36.1961 -96.1544 270° West 421 484 34,300 1,500 Climbing Kansas City Center
04:29PM 36.1967 -96.3250 270° West 414 476 36,000 780 Climbing Kansas City Center
04:30PM 36.1950 -96.4669 269° West 413 475 36,000  Level Kansas City Center
04:31PM 36.1939 -96.6131 270° West 420 483 36,000  Level Kansas City Center
04:32PM 36.1928 -96.7622 270° West 426 490 36,000  Level Kansas City Center
04:33PM 36.1928 -96.9078 270° West 427 491 36,000  Level Kansas City Center
04:34PM 36.1903 -97.0542 269° West 427 491 36,000  Level Kansas City Center
04:35PM 36.1900 -97.2300 270° West 428 493 36,000  Level Kansas City Center
04:36PM 36.1878 -97.3764 269° West 428 493 36,000  Level Kansas City Center
04:37PM 36.1853 -97.5219 269° West 428 493 36,000  Level Kansas City Center
04:38PM 36.1828 -97.6678 269° West 427 491 36,000  Level Kansas City Center
04:39PM 36.1806 -97.8125 269° West 424 488 36,000  Level Kansas City Center
04:41PM 36.1781 -97.9858 269° West 423 487 36,000  Level Kansas City Center
04:42PM 36.1750 -98.1153 268° West 423 487 36,000  Level Kansas City Center
04:43PM 36.1722 -98.2614 269° West 423 487 36,000  Level Kansas City Center
04:44PM 36.1689 -98.4342 269° West 420 483 36,000  Level Kansas City Center
04:45PM 36.1653 -98.5789 268° West 420 483 36,000  Level Kansas City Center
04:46PM 36.1617 -98.7222 268° West 418 481 36,000  Level Kansas City Center
04:47PM 36.1583 -98.8786 269° West 419 482 36,000  Level Kansas City Center
04:48PM 36.1544 -99.0217 268° West 418 481 36,000  Level Kansas City Center
04:49PM 36.1514 -99.1633 269° West 416 479 36,000  Level Kansas City Center
04:50PM 36.1467 -99.3067 268° West 417 480 36,000  Level Kansas City Center
04:51PM 36.1425 -99.4592 268° West 417 480 36,000  Level Kansas City Center
04:52PM 36.1381 -99.5994 268° West 413 475 36,000  Level Kansas City Center
04:53PM 36.1328 -99.7419 267° West 414 476 36,000  Level Kansas City Center
04:54PM 36.1264 -99.9142 267° West 417 480 36,000  Level Kansas City Center
04:55PM 36.1214 -100.0569 268° West 416 479 36,000  Level Kansas City Center
04:56PM 36.1169 -100.2000 268° West 415 478 36,000  Level Kansas City Center
04:56PM 36.1153 -100.2572 268° West 416 479 36,000  Level Albuquerque Center
04:57PM 36.1092 -100.3981 267° West 414 476 36,000  Level Albuquerque Center
04:58PM 36.1033 -100.5408 267° West 414 476 36,000  Level Albuquerque Center
04:59PM 36.0994 -100.6817 268° West 412 474 36,000  Level Albuquerque Center
05:01PM 36.0931 -100.8233 267° West 412 474 36,000  Level Albuquerque Center
05:02PM 36.0869 -100.9628 267° West 409 471 36,000  Level Albuquerque Center
05:03PM 36.0797 -101.1333 267° West 413 475 36,000  Level Albuquerque Center
05:04PM 36.0742 -101.2669 267° West 408 470 36,000  Level Albuquerque Center
05:05PM 36.0683 -101.4086 267° West 412 474 36,000  Level Albuquerque Center
05:06PM 36.0608 -101.5481 266° West 413 475 36,000  Level Albuquerque Center
05:07PM 36.0531 -101.7147 267° West 408 470 36,000  Level Albuquerque Center
05:08PM 36.0458 -101.8508 266° West 404 465 36,000  Level Albuquerque Center
05:09PM 36.0397 -101.9922 267° West 411 473 36,000  Level Albuquerque Center
05:10PM 36.0311 -102.1319 266° West 412 474 36,000  Level Albuquerque Center
05:11PM 36.0242 -102.2714 267° West 411 473 36,000  Level Albuquerque Center
05:12PM 36.0164 -102.4114 266° West 411 473 36,000  Level Albuquerque Center
05:13PM 36.0078 -102.5808 266° West 413 475 36,000  Level Albuquerque Center
05:14PM 35.9989 -102.7211 266° West 414 476 36,000  Level Albuquerque Center
05:15PM 35.9911 -102.8625 266° West 414 476 36,000  Level Albuquerque Center
05:16PM 35.9828 -103.0136 266° West 412 474 36,000  Level Albuquerque Center
05:17PM 35.9739 -103.1569 266° West 415 478 36,000  Level Albuquerque Center
05:18PM 35.9653 -103.2992 266° West 413 475 36,000  Level Albuquerque Center
05:19PM 35.9561 -103.4414 265° West 414 476 36,000  Level Albuquerque Center
05:20PM 35.9464 -103.5842 265° West 416 479 36,000  Level Albuquerque Center
05:21PM 35.9364 -103.7497 266° West 413 475 36,000  Level Albuquerque Center
05:22PM 35.9269 -103.8931 265° West 416 479 36,000  Level Albuquerque Center
05:23PM 35.9172 -104.0369 265° West 418 481 36,000  Level Albuquerque Center
05:24PM 35.9067 -104.1811 265° West 419 482 36,000  Level Albuquerque Center
05:25PM 35.8964 -104.3256 265° West 421 484 36,000  Level Albuquerque Center
05:26PM 35.8867 -104.4692 265° West 421 484 36,000  Level Albuquerque Center
05:27PM 35.8753 -104.6125 264° West 419 482 36,000  Level Albuquerque Center
05:28PM 35.8636 -104.7792 265° West 418 481 36,000  Level Albuquerque Center
05:29PM 35.8525 -104.9228 265° West 418 481 36,000  Level Albuquerque Center
05:30PM 35.8403 -105.0664 264° West 419 482 36,000  Level Albuquerque Center
05:31PM 35.8308 -105.2092 265° West 418 481 36,100  Climbing Albuquerque Center
05:33PM 35.8181 -105.3531 264° West 419 482 36,000 -60 Descending Albuquerque Center
05:34PM 35.8061 -105.4969 264° West 420 483 36,000  Level Albuquerque Center
05:35PM 35.7961 -105.6314 265° West 420 483 36,000  Level Albuquerque Center
05:36PM 35.7822 -105.8022 264° West 420 483 36,000  Level Albuquerque Center
05:37PM 35.7703 -105.9439 264° West 418 481 36,000  Level Albuquerque Center
05:38PM 35.7581 -106.0872 264° West 420 483 36,000  Level Albuquerque Center
05:39PM 35.7456 -106.2461 265° West 423 487 36,000  Level Albuquerque Center
05:40PM 35.7336 -106.3836 264° West 423 487 36,000  Level Albuquerque Center
05:41PM 35.7183 -106.5450 263° West 425 489 36,000  Level Albuquerque Center
05:42PM 35.7069 -106.6825 264° West 423 487 36,000  Level Albuquerque Center
05:43PM 35.6917 -106.8431 263° West 424 488 36,000  Level Albuquerque Center
05:44PM 35.6786 -106.9814 263° West 425 489 36,000  Level Albuquerque Center
05:45PM 35.6661 -107.1192 264° West 424 488 36,000  Level Albuquerque Center
05:46PM 35.6514 -107.2797 264° West 423 487 36,000  Level Albuquerque Center
05:47PM 35.6386 -107.4192 264° West 427 491 36,000  Level Albuquerque Center
05:48PM 35.6219 -107.5814 263° West 428 493 36,000  Level Albuquerque Center
05:49PM 35.6081 -107.7200 263° West 428 493 36,000  Level Albuquerque Center
05:50PM 35.5922 -107.8842 263° West 430 495 36,000  Level Albuquerque Center
05:51PM 35.5778 -108.0250 263° West 432 497 36,000  Level Albuquerque Center
05:52PM 35.5633 -108.1653 263° West 433 498 36,000  Level Albuquerque Center
05:53PM 35.5467 -108.3283 263° West 431 496 36,000  Level Albuquerque Center
05:54PM 35.5308 -108.4692 262° West 433 498 36,000  Level Albuquerque Center
05:55PM 35.5136 -108.6339 263° West 433 498 36,000  Level Albuquerque Center
05:56PM 35.4989 -108.7739 263° West 432 497 36,000  Level Albuquerque Center
05:57PM 35.4814 -108.9389 263° West 433 498 36,000  Level Albuquerque Center
05:58PM 35.4653 -109.0817 262° West 436 502 36,000  Level Albuquerque Center
05:59PM 35.4497 -109.2236 262° West 437 503 36,000  Level Albuquerque Center
06:00PM 35.4294 -109.3881 261° West 436 502 36,000  Level Albuquerque Center
06:01PM 35.4136 -109.5311 262° West 439 505 36,000  Level Albuquerque Center
06:02PM 35.3939 -109.6964 262° West 441 507 36,000  Level Albuquerque Center
06:03PM 35.3778 -109.8378 262° West 439 505 36,000  Level Albuquerque Center
06:04PM 35.3564 -110.0017 261° West 436 502 36,000  Level Albuquerque Center
06:06PM 35.3383 -110.1444 261° West 441 507 36,000  Level Albuquerque Center
06:07PM 35.3203 -110.2850 261° West 439 505 36,000 -660 Level Albuquerque Center
06:08PM 35.3003 -110.4514 262° West 441 507 34,700 -1,260 Descending Albuquerque Center
06:09PM 35.2817 -110.5936 261° West 442 509 33,500 -1,260 Descending Albuquerque Center
06:10PM 35.2606 -110.7589 261° West 441 507 32,200 -1,320 Descending Albuquerque Center
06:11PM 35.2061 -110.8856 242° Southwest 450 518 30,800 -1,080 Descending Albuquerque Center
06:12PM 35.1056 -111.0033 224° Southwest 448 516 30,000 -660 Descending Albuquerque Center
06:13PM 35.0222 -111.0867 219° Southwest 451 519 29,500 -1,020 Descending Albuquerque Center
06:14PM 34.9047 -111.2133 221° Southwest 468 539 27,900 -1,620 Descending Albuquerque Center
06:15PM 34.8044 -111.3150 220° Southwest 470 541 26,200 -1,740 Descending Albuquerque Center
06:16PM 34.7081 -111.4142 220° Southwest 461 531 24,400 -2,580 Descending Albuquerque Center
06:17PM 34.6181 -111.5042 219° Southwest 433 498 21,000 -2,820 Descending Albuquerque Center
06:18PM 34.5322 -111.5906 220° Southwest 412 474 18,600 -2,160 Descending Albuquerque Center
06:19PM 34.4531 -111.6686 219° Southwest 381 438 16,600 -1,920 Descending Albuquerque Center
06:20PM 34.3750 -111.7475 220° Southwest 370 426 14,700 -1,980 Descending Albuquerque Center
06:21PM 34.2853 -111.8358 219° Southwest 356 410 12,600 -1,800 Descending Albuquerque Center
06:22PM 34.2203 -111.8967 218° Southwest 310 357 11,000 -900 Descending Albuquerque Center
06:23PM 34.1472 -111.9247 198° South 283 326 10,800 -840 Descending Albuquerque Center
06:24PM 34.0669 -111.9292 183° South 291 335 9,300 -1,440 Descending Albuquerque Center
06:25PM 33.9925 -111.9328 182° South 275 316 7,900 -1,560 Descending Albuquerque Center
06:26PM 33.9050 -111.9203 173° South 268 308 6,100 -1,380 Descending Albuquerque Center
06:27PM 33.8333 -111.9053 170° South 266 306 5,100 -720 Descending Albuquerque Center
06:28PM 33.7733 -111.8897 168° South 222 255 4,700 -720 Descending Albuquerque Center
06:29PM 33.7169 -111.8789 171° South 208 239 3,700 -1,020 Descending Albuquerque Center
06:30PM 33.6653 -111.8744 176° South 195 224 2,700 -1,080 Descending Albuquerque Center
06:31PM 33.6308 -111.9022 214° Southwest 158 182 1,500 -1,200 Descending Albuquerque Center
06:33PM 33.6229 -111.9105 189° South  Level Estimated